Clearview, Washington
Current Conditions -  °F | °C
As of 11:53 PM on Friday 24 Oct 2014 (Local Time) from KPAE Reporting Station
Overcast Overcast  
Wind Chill: 51°   Ceiling: 7500
Heat Index: 51°   Visibility: 10mi
Dew Point: 45°   Wind: 8mph
Humidity: 80%   Direction: 70°ENE
Pressure: 29.75"   Gusts: NA
Location:  47.9468°N, 122.012°W
Report Text: KPAE 250653Z AUTO 07007KT 030V100 10SM SCT060 BKN075 OVC090 11/07 A2975 RMK AO2 RAE42 SLP076 P0002 T01060072
Loading
Personal Weather Stations






























Interactive Weather Map New forecast layout! Learn more

10-Day Weather Forecast

Advertisements
Track Severe Weather on mobile